METAR Data
IDs: Format: Raw Decoded Include TAF

Data at: 0118 UTC 16 Jan 2019

METAR for:PAAK (Atka Arpt, AK, US)
Text:PAAK 160056Z AUTO 30015G23KT 7SM -SN FEW029 BKN048 OVC060 M01/M05 A2976 RMK AO2 PK WND 32026/0043 SLP080 T10111050 FZRANO PNO $
Temperature: -1.1°C ( 30°F)
Dewpoint: -5.0°C ( 23°F) [RH = 75%]
Pressure (altimeter):29.76 inches Hg (1007.9 mb) [Sea level pressure: 1008.0 mb]
Winds:from the WNW (300 degrees) at 17 MPH (15 knots; 7.7 m/s) gusting to 26 MPH (23 knots; 11.8 m/s)
Visibility: 7 sm ( 11 km)
Ceiling:4800 feet AGL
Clouds: few clouds at 2900 feet AGL, broken clouds at 4800 feet AGL, overcast cloud deck at 6000 feet AGL
Weather:-SN (light snow)
QC Flag:automated observation with no human augmentation; SOME DATA ABOVE MAY BE INACCURATE!!!"$" is an indication the sensor requires maintenance.
Text:PAAK 152356Z AUTO 29021G24KT 9SM -SN SCT032 BKN048 OVC055 M01/M05 A2974 RMK AO2 SLP072 6//// T10111050 11011 21022 51019 FZRANO PNO $
Temperature: -1.1°C ( 30°F)
Dewpoint: -5.0°C ( 23°F) [RH = 75%]
Pressure (altimeter):29.74 inches Hg (1007.2 mb) [Sea level pressure: 1007.2 mb]
Winds:from the WNW (290 degrees) at 24 MPH (21 knots; 10.8 m/s) gusting to 28 MPH (24 knots; 12.3 m/s)
Visibility: 9 sm ( 14 km)
Ceiling:4800 feet AGL
Clouds: scattered clouds at 3200 feet AGL, broken clouds at 4800 feet AGL, overcast cloud deck at 5500 feet AGL
Weather:-SN (light snow)
QC Flag:automated observation with no human augmentation; SOME DATA ABOVE MAY BE INACCURATE!!!"$" is an indication the sensor requires maintenance.
Text:PAAK 152338Z AUTO 29018KT 9SM -SN FEW026 BKN034 OVC050 M01/M05 A2974 RMK AO2 FZRANO PNO $
Temperature: -1.0°C ( 30°F)
Dewpoint: -5.0°C ( 23°F) [RH = 74%]
Pressure (altimeter):29.74 inches Hg (1007.2 mb)
Winds:from the WNW (290 degrees) at 21 MPH (18 knots; 9.3 m/s)
Visibility: 9 sm ( 14 km)
Ceiling:3400 feet AGL
Clouds: few clouds at 2600 feet AGL, broken clouds at 3400 feet AGL, overcast cloud deck at 5000 feet AGL
Weather:-SN (light snow)
QC Flag:automated observation with no human augmentation; SOME DATA ABOVE MAY BE INACCURATE!!!"$" is an indication the sensor requires maintenance.
Text:PAAK 152330Z AUTO 31016G21KT 2 1/2SM -SN FEW014 BKN033 OVC045 M02/M05 A2975 RMK AO2 VIS 1V5 FZRANO PNO $
Temperature: -2.0°C ( 28°F)
Dewpoint: -5.0°C ( 23°F) [RH = 80%]
Pressure (altimeter):29.75 inches Hg (1007.5 mb)
Winds:from the NW (310 degrees) at 18 MPH (16 knots; 8.2 m/s) gusting to 24 MPH (21 knots; 10.8 m/s)
Visibility: 2.50 sm ( 4.02 km)
Ceiling:3300 feet AGL
Clouds: few clouds at 1400 feet AGL, broken clouds at 3300 feet AGL, overcast cloud deck at 4500 feet AGL
Weather:-SN (light snow)
QC Flag:automated observation with no human augmentation; SOME DATA ABOVE MAY BE INACCURATE!!!"$" is an indication the sensor requires maintenance.
Text:PAAK 152256Z AUTO 31018G22KT 9SM -SN OVC045 M01/M07 A2974 RMK AO2 PK WND 29028/2209 SNB01 SLP071 T10111067 FZRANO PNO $
Temperature: -1.1°C ( 30°F)
Dewpoint: -6.7°C ( 20°F) [RH = 66%]
Pressure (altimeter):29.74 inches Hg (1007.2 mb) [Sea level pressure: 1007.1 mb]
Winds:from the NW (310 degrees) at 21 MPH (18 knots; 9.3 m/s) gusting to 25 MPH (22 knots; 11.3 m/s)
Visibility: 9 sm ( 14 km)
Ceiling:4500 feet AGL
Clouds: overcast cloud deck at 4500 feet AGL
Weather:-SN (light snow)
QC Flag:automated observation with no human augmentation; SOME DATA ABOVE MAY BE INACCURATE!!!"$" is an indication the sensor requires maintenance.
Text:PAAK 152156Z AUTO 30016G21KT 10SM OVC050 M01/M06 A2971 RMK AO2 PK WND 30031/2106 SNB2059E12B28E40 SLP063 T10111056 FZRANO PNO $
Temperature: -1.1°C ( 30°F)
Dewpoint: -5.6°C ( 22°F) [RH = 71%]
Pressure (altimeter):29.71 inches Hg (1006.2 mb) [Sea level pressure: 1006.3 mb]
Winds:from the WNW (300 degrees) at 18 MPH (16 knots; 8.2 m/s) gusting to 24 MPH (21 knots; 10.8 m/s)
Visibility:10 or more sm (16+ km)
Ceiling:5000 feet AGL
Clouds: overcast cloud deck at 5000 feet AGL
QC Flag:automated observation with no human augmentation; SOME DATA ABOVE MAY BE INACCURATE!!!"$" is an indication the sensor requires maintenance.
Text:PAAK 152056Z AUTO 31022G28KT 10SM FEW034 OVC048 M02/M06 A2968 RMK AO2 PK WND 30036/2003 SNB02E47 SLP054 6//// T10171061 51034 FZRANO PNO $
Temperature: -1.7°C ( 29°F)
Dewpoint: -6.1°C ( 21°F) [RH = 72%]
Pressure (altimeter):29.68 inches Hg (1005.2 mb) [Sea level pressure: 1005.4 mb]
Winds:from the NW (310 degrees) at 25 MPH (22 knots; 11.3 m/s) gusting to 32 MPH (28 knots; 14.4 m/s)
Visibility:10 or more sm (16+ km)
Ceiling:4800 feet AGL
Clouds: few clouds at 3400 feet AGL, overcast cloud deck at 4800 feet AGL
QC Flag:automated observation with no human augmentation; SOME DATA ABOVE MAY BE INACCURATE!!!"$" is an indication the sensor requires maintenance.
Text:PAAK 152018Z AUTO 31018KT 3SM -SN FEW019 SCT027 BKN035 M02/M05 A2967 RMK AO2 PK WND 30036/2003 SNB02 FZRANO PNO $
Temperature: -2.0°C ( 28°F)
Dewpoint: -5.0°C ( 23°F) [RH = 80%]
Pressure (altimeter):29.67 inches Hg (1004.8 mb)
Winds:from the NW (310 degrees) at 21 MPH (18 knots; 9.3 m/s)
Visibility: 3 sm ( 5 km)
Ceiling:3500 feet AGL
Clouds: few clouds at 1900 feet AGL, scattered clouds at 2700 feet AGL, broken clouds at 3500 feet AGL
Weather:-SN (light snow)
QC Flag:automated observation with no human augmentation; SOME DATA ABOVE MAY BE INACCURATE!!!"$" is an indication the sensor requires maintenance.
Text:PAAK 152015Z AUTO 31019G32KT 1 1/2SM -SN FEW019 SCT027 BKN035 M02/M05 A2968 RMK AO2 PK WND 30036/2003 SNB02 FZRANO PNO $
Temperature: -2.0°C ( 28°F)
Dewpoint: -5.0°C ( 23°F) [RH = 80%]
Pressure (altimeter):29.68 inches Hg (1005.2 mb)
Winds:from the NW (310 degrees) at 22 MPH (19 knots; 9.8 m/s) gusting to 37 MPH (32 knots; 16.5 m/s)
Visibility: 1.50 sm ( 2.41 km)
Ceiling:3500 feet AGL
Clouds: few clouds at 1900 feet AGL, scattered clouds at 2700 feet AGL, broken clouds at 3500 feet AGL
Weather:-SN (light snow)
QC Flag:automated observation with no human augmentation; SOME DATA ABOVE MAY BE INACCURATE!!!"$" is an indication the sensor requires maintenance.
Text:PAAK 152006Z AUTO 30025G36KT 3/4SM -SN BR FEW017 BKN050 M02/M04 A2967 RMK AO2 PK WND 30036/2003 SNB02 FZRANO PNO $
Temperature: -2.0°C ( 28°F)
Dewpoint: -4.0°C ( 25°F) [RH = 86%]
Pressure (altimeter):29.67 inches Hg (1004.8 mb)
Winds:from the WNW (300 degrees) at 29 MPH (25 knots; 12.9 m/s) gusting to 41 MPH (36 knots; 18.5 m/s)
Visibility: 0.75 sm ( 1.21 km)
Ceiling:5000 feet AGL
Clouds: few clouds at 1700 feet AGL, broken clouds at 5000 feet AGL
Weather:-SN BR (light snow, mist)
QC Flag:automated observation with no human augmentation; SOME DATA ABOVE MAY BE INACCURATE!!!"$" is an indication the sensor requires maintenance.
Text:PAAK 151956Z AUTO 31027G31KT 9SM OVC050 M01/M05 A2966 RMK AO2 PK WND 31031/1956 SNE26 SLP046 T10111050 FZRANO PNO $
Temperature: -1.1°C ( 30°F)
Dewpoint: -5.0°C ( 23°F) [RH = 75%]
Pressure (altimeter):29.66 inches Hg (1004.5 mb) [Sea level pressure: 1004.6 mb]
Winds:from the NW (310 degrees) at 31 MPH (27 knots; 13.9 m/s) gusting to 36 MPH (31 knots; 15.9 m/s)
Visibility: 9 sm ( 14 km)
Ceiling:5000 feet AGL
Clouds: overcast cloud deck at 5000 feet AGL
QC Flag:automated observation with no human augmentation; SOME DATA ABOVE MAY BE INACCURATE!!!"$" is an indication the sensor requires maintenance.

TAF for:PAAK (Atka Arpt, AK, US)
Text:No data found